sensor_id;sensor_type;location;lat;lon;timestamp;pressure;altitude;pressure_sealevel;temperature;humidity
20145;BME280;10233;50.814;6.590;2023-06-19T00:00:06;99531.69;;;20.63;100.00
20145;BME280;10233;50.814;6.590;2023-06-19T00:01:12;99530.00;;;20.72;100.00
20145;BME280;10233;50.814;6.590;2023-06-19T00:02:13;99527.81;;;20.74;100.00
20145;BME280;10233;50.814;6.590;2023-06-19T00:03:13;99535.69;;;20.70;100.00
20145;BME280;10233;50.814;6.590;2023-06-19T00:04:14;99531.38;;;20.69;100.00
20145;BME280;10233;50.814;6.590;2023-06-19T00:05:14;99533.44;;;20.49;100.00
20145;BME280;10233;50.814;6.590;2023-06-19T00:06:14;99534.91;;;20.36;100.00
20145;BME280;10233;50.814;6.590;2023-06-19T00:07:15;99531.13;;;20.37;100.00
20145;BME280;10233;50.814;6.590;2023-06-19T00:08:15;99531.31;;;20.46;100.00
20145;BME280;10233;50.814;6.590;2023-06-19T00:09:16;99539.03;;;20.57;100.00
20145;BME280;10233;50.814;6.590;2023-06-19T00:10:17;99539.03;;;20.57;100.00
20145;BME280;10233;50.814;6.590;2023-06-19T00:11:18;99536.97;;;20.49;100.00
20145;BME280;10233;50.814;6.590;2023-06-19T00:12:18;99536.34;;;20.57;100.00
20145;BME280;10233;50.814;6.590;2023-06-19T00:13:19;99543.13;;;20.55;100.00
20145;BME280;10233;50.814;6.590;2023-06-19T00:14:19;99535.88;;;20.50;100.00
20145;BME280;10233;50.814;6.590;2023-06-19T00:15:20;99541.75;;;20.57;100.00
20145;BME280;10233;50.814;6.590;2023-06-19T00:16:20;99538.03;;;20.53;100.00
20145;BME280;10233;50.814;6.590;2023-06-19T00:17:21;99552.84;;;20.56;100.00
20145;BME280;10233;50.814;6.590;2023-06-19T00:18:21;99537.44;;;20.56;100.00
20145;BME280;10233;50.814;6.590;2023-06-19T00:19:22;99541.41;;;20.35;100.00
20145;BME280;10233;50.814;6.590;2023-06-19T00:20:23;99543.47;;;20.43;100.00
20145;BME280;10233;50.814;6.590;2023-06-19T00:21:25;99542.94;;;20.46;100.00
20145;BME280;10233;50.814;6.590;2023-06-19T00:22:25;99538.91;;;20.44;100.00
20145;BME280;10233;50.814;6.590;2023-06-19T00:23:26;99540.28;;;20.41;100.00
20145;BME280;10233;50.814;6.590;2023-06-19T00:24:26;99538.66;;;20.40;100.00
20145;BME280;10233;50.814;6.590;2023-06-19T00:25:27;99539.84;;;20.29;100.00
20145;BME280;10233;50.814;6.590;2023-06-19T00:26:27;99545.75;;;20.31;100.00
20145;BME280;10233;50.814;6.590;2023-06-19T00:27:28;99539.81;;;20.34;100.00
20145;BME280;10233;50.814;6.590;2023-06-19T00:28:29;99541.19;;;20.32;100.00
20145;BME280;10233;50.814;6.590;2023-06-19T00:29:30;99542.28;;;20.26;100.00
20145;BME280;10233;50.814;6.590;2023-06-19T00:30:31;99543.56;;;20.33;100.00
20145;BME280;10233;50.814;6.590;2023-06-19T00:31:32;99544.63;;;20.37;100.00
20145;BME280;10233;50.814;6.590;2023-06-19T00:32:33;99547.78;;;20.49;100.00
20145;BME280;10233;50.814;6.590;2023-06-19T00:33:45;99555.28;;;20.52;100.00
20145;BME280;10233;50.814;6.590;2023-06-19T00:34:47;99553.41;;;20.53;100.00
20145;BME280;10233;50.814;6.590;2023-06-19T00:35:51;99553.13;;;20.54;100.00
20145;BME280;10233;50.814;6.590;2023-06-19T00:36:52;99557.41;;;20.60;100.00
20145;BME280;10233;50.814;6.590;2023-06-19T00:37:56;99557.63;;;20.64;100.00
20145;BME280;10233;50.814;6.590;2023-06-19T00:38:57;99556.78;;;20.68;100.00
20145;BME280;10233;50.814;6.590;2023-06-19T00:39:58;99555.16;;;20.67;100.00
20145;BME280;10233;50.814;6.590;2023-06-19T00:40:59;99560.72;;;20.81;100.00
20145;BME280;10233;50.814;6.590;2023-06-19T00:41:59;99562.88;;;20.79;100.00
20145;BME280;10233;50.814;6.590;2023-06-19T00:43:02;99568.84;;;20.81;100.00
20145;BME280;10233;50.814;6.590;2023-06-19T00:44:03;99561.78;;;20.80;100.00
20145;BME280;10233;50.814;6.590;2023-06-19T00:45:04;99560.94;;;20.84;100.00
20145;BME280;10233;50.814;6.590;2023-06-19T00:46:05;99564.97;;;20.87;100.00
20145;BME280;10233;50.814;6.590;2023-06-19T00:47:06;99563.06;;;20.92;100.00
20145;BME280;10233;50.814;6.590;2023-06-19T00:48:07;99561.09;;;20.98;100.00
20145;BME280;10233;50.814;6.590;2023-06-19T00:49:08;99564.34;;;21.00;100.00
20145;BME280;10233;50.814;6.590;2023-06-19T00:50:09;99568.94;;;20.99;100.00
20145;BME280;10233;50.814;6.590;2023-06-19T00:51:10;99565.13;;;21.00;100.00
20145;BME280;10233;50.814;6.590;2023-06-19T00:52:10;99565.13;;;21.00;100.00
20145;BME280;10233;50.814;6.590;2023-06-19T00:53:11;99562.44;;;21.00;100.00
20145;BME280;10233;50.814;6.590;2023-06-19T00:54:12;99563.97;;;21.06;100.00
20145;BME280;10233;50.814;6.590;2023-06-19T00:55:15;99565.38;;;21.04;100.00
20145;BME280;10233;50.814;6.590;2023-06-19T00:56:16;99566.19;;;21.04;100.00
20145;BME280;10233;50.814;6.590;2023-06-19T00:57:18;99569.44;;;21.01;100.00
20145;BME280;10233;50.814;6.590;2023-06-19T00:58:19;99564.53;;;21.08;100.00
20145;BME280;10233;50.814;6.590;2023-06-19T00:59:20;99570.91;;;21.17;100.00
20145;BME280;10233;50.814;6.590;2023-06-19T01:00:22;99569.22;;;21.21;100.00
20145;BME280;10233;50.814;6.590;2023-06-19T01:01:23;99575.72;;;21.20;100.00
20145;BME280;10233;50.814;6.590;2023-06-19T01:02:25;99576.06;;;21.14;100.00
20145;BME280;10233;50.814;6.590;2023-06-19T01:03:25;99569.81;;;21.18;100.00
20145;BME280;10233;50.814;6.590;2023-06-19T01:04:26;99569.81;;;21.18;100.00
20145;BME280;10233;50.814;6.590;2023-06-19T01:05:27;99574.69;;;21.16;100.00
20145;BME280;10233;50.814;6.590;2023-06-19T01:06:32;99574.94;;;21.20;100.00
20145;BME280;10233;50.814;6.590;2023-06-19T01:07:47;99577.59;;;21.25;100.00
20145;BME280;10233;50.814;6.590;2023-06-19T01:08:56;99575.16;;;21.23;100.00
20145;BME280;10233;50.814;6.590;2023-06-19T01:10:02;99570.25;;;21.25;100.00
20145;BME280;10233;50.814;6.590;2023-06-19T01:11:07;99571.34;;;21.24;100.00
20145;BME280;10233;50.814;6.590;2023-06-19T01:12:16;99573.56;;;21.22;100.00
20145;BME280;10233;50.814;6.590;2023-06-19T01:14:50;99581.91;;;21.26;100.00
20145;BME280;10233;50.814;6.590;2023-06-19T01:15:52;99576.22;;;21.27;100.00
20145;BME280;10233;50.814;6.590;2023-06-19T01:16:53;99581.03;;;21.30;100.00
20145;BME280;10233;50.814;6.590;2023-06-19T01:17:56;99570.50;;;21.29;100.00
20145;BME280;10233;50.814;6.590;2023-06-19T01:18:58;99572.34;;;21.33;100.00
20145;BME280;10233;50.814;6.590;2023-06-19T01:19:59;99573.66;;;21.36;100.00
20145;BME280;10233;50.814;6.590;2023-06-19T01:21:14;99564.16;;;21.38;100.00
20145;BME280;10233;50.814;6.590;2023-06-19T01:23:27;99571.66;;;21.46;100.00
20145;BME280;10233;50.814;6.590;2023-06-19T01:24:28;99564.09;;;21.43;100.00
20145;BME280;10233;50.814;6.590;2023-06-19T01:25:29;99569.06;;;21.36;100.00
20145;BME280;10233;50.814;6.590;2023-06-19T01:26:29;99571.72;;;21.41;100.00
20145;BME280;10233;50.814;6.590;2023-06-19T01:27:31;99572.50;;;21.42;100.00
20145;BME280;10233;50.814;6.590;2023-06-19T01:28:38;99564.66;;;21.40;100.00
20145;BME280;10233;50.814;6.590;2023-06-19T01:29:39;99569.06;;;21.36;100.00
20145;BME280;10233;50.814;6.590;2023-06-19T01:30:41;99567.69;;;21.39;100.00
20145;BME280;10233;50.814;6.590;2023-06-19T01:31:49;99574.09;;;21.43;100.00
20145;BME280;10233;50.814;6.590;2023-06-19T01:33:00;99573.53;;;21.46;100.00
20145;BME280;10233;50.814;6.590;2023-06-19T01:34:06;99576.25;;;21.46;100.00
20145;BME280;10233;50.814;6.590;2023-06-19T01:35:09;99571.06;;;21.49;100.00
20145;BME280;10233;50.814;6.590;2023-06-19T01:36:10;99573.75;;;21.49;100.00
20145;BME280;10233;50.814;6.590;2023-06-19T01:37:12;99575.63;;;21.54;100.00
20145;BME280;10233;50.814;6.590;2023-06-19T01:38:14;99577.56;;;21.48;100.00
20145;BME280;10233;50.814;6.590;2023-06-19T01:39:16;99581.31;;;21.52;100.00
20145;BME280;10233;50.814;6.590;2023-06-19T01:40:18;99578.06;;;21.50;100.00
20145;BME280;10233;50.814;6.590;2023-06-19T01:41:22;99581.81;;;21.54;100.00
20145;BME280;10233;50.814;6.590;2023-06-19T01:42:25;99584.03;;;21.52;100.00
20145;BME280;10233;50.814;6.590;2023-06-19T01:43:28;99582.69;;;21.50;100.00
20145;BME280;10233;50.814;6.590;2023-06-19T01:44:30;99582.97;;;21.48;100.00
20145;BME280;10233;50.814;6.590;2023-06-19T01:45:31;99585.97;;;21.47;100.00
20145;BME280;10233;50.814;6.590;2023-06-19T01:46:34;99590.00;;;21.49;100.00
20145;BME280;10233;50.814;6.590;2023-06-19T01:47:37;99578.13;;;21.45;100.00
20145;BME280;10233;50.814;6.590;2023-06-19T01:48:39;99580.28;;;21.48;100.00
20145;BME280;10233;50.814;6.590;2023-06-19T01:49:40;99588.91;;;21.50;100.00
20145;BME280;10233;50.814;6.590;2023-06-19T01:50:45;99584.16;;;21.42;100.00
20145;BME280;10233;50.814;6.590;2023-06-19T01:51:46;99588.69;;;21.47;100.00
20145;BME280;10233;50.814;6.590;2023-06-19T01:52:46;99590.59;;;21.46;100.00
20145;BME280;10233;50.814;6.590;2023-06-19T01:53:47;99591.50;;;21.37;100.00
20145;BME280;10233;50.814;6.590;2023-06-19T01:54:47;99589.84;;;21.41;100.00
20145;BME280;10233;50.814;6.590;2023-06-19T01:55:48;99595.53;;;21.39;100.00
20145;BME280;10233;50.814;6.590;2023-06-19T01:56:49;99595.53;;;21.39;100.00
20145;BME280;10233;50.814;6.590;2023-06-19T01:57:50;99600.16;;;21.39;100.00
20145;BME280;10233;50.814;6.590;2023-06-19T01:58:50;99601.00;;;21.34;100.00
20145;BME280;10233;50.814;6.590;2023-06-19T01:59:51;99600.72;;;21.36;100.00
20145;BME280;10233;50.814;6.590;2023-06-19T02:00:51;99601.97;;;21.43;100.00
20145;BME280;10233;50.814;6.590;2023-06-19T02:01:52;99603.16;;;21.37;100.00
20145;BME280;10233;50.814;6.590;2023-06-19T02:02:52;99609.13;;;21.34;100.00
20145;BME280;10233;50.814;6.590;2023-06-19T02:03:52;99600.28;;;21.29;100.00
20145;BME280;10233;50.814;6.590;2023-06-19T02:04:53;99611.03;;;21.34;100.00
20145;BME280;10233;50.814;6.590;2023-06-19T02:05:53;99609.47;;;21.28;100.00
20145;BME280;10233;50.814;6.590;2023-06-19T02:06:54;99608.06;;;21.30;100.00
20145;BME280;10233;50.814;6.590;2023-06-19T02:07:55;99606.25;;;21.26;100.00
20145;BME280;10233;50.814;6.590;2023-06-19T02:08:56;99604.31;;;21.26;100.00
20145;BME280;10233;50.814;6.590;2023-06-19T02:09:57;99609.22;;;21.24;100.00
20145;BME280;10233;50.814;6.590;2023-06-19T02:10:57;99607.41;;;21.20;100.00
20145;BME280;10233;50.814;6.590;2023-06-19T02:11:58;99607.16;;;21.16;100.00
20145;BME280;10233;50.814;6.590;2023-06-19T02:12:59;99617.41;;;21.19;100.00
20145;BME280;10233;50.814;6.590;2023-06-19T02:14:00;99616.59;;;21.19;100.00
20145;BME280;10233;50.814;6.590;2023-06-19T02:15:00;99613.09;;;21.18;100.00
20145;BME280;10233;50.814;6.590;2023-06-19T02:16:01;99613.59;;;21.20;100.00
20145;BME280;10233;50.814;6.590;2023-06-19T02:17:02;99622.31;;;21.17;100.00
20145;BME280;10233;50.814;6.590;2023-06-19T02:18:03;99624.38;;;21.25;100.00
20145;BME280;10233;50.814;6.590;2023-06-19T02:19:03;99619.88;;;21.16;100.00
20145;BME280;10233;50.814;6.590;2023-06-19T02:20:04;99626.91;;;21.17;100.00
20145;BME280;10233;50.814;6.590;2023-06-19T02:21:10;99630.09;;;21.19;100.00
20145;BME280;10233;50.814;6.590;2023-06-19T02:22:10;99623.72;;;21.10;100.00
20145;BME280;10233;50.814;6.590;2023-06-19T02:23:11;99628.28;;;21.14;100.00
20145;BME280;10233;50.814;6.590;2023-06-19T02:24:11;99631.53;;;21.11;100.00
20145;BME280;10233;50.814;6.590;2023-06-19T02:25:12;99633.72;;;21.09;100.00
20145;BME280;10233;50.814;6.590;2023-06-19T02:26:17;99633.22;;;21.07;100.00
20145;BME280;10233;50.814;6.590;2023-06-19T02:27:19;99640.63;;;20.97;100.00
20145;BME280;10233;50.814;6.590;2023-06-19T02:28:20;99635.53;;;20.90;100.00
20145;BME280;10233;50.814;6.590;2023-06-19T02:29:20;99634.78;;;20.80;100.00
20145;BME280;10233;50.814;6.590;2023-06-19T02:30:21;99633.41;;;20.82;100.00
20145;BME280;10233;50.814;6.590;2023-06-19T02:31:22;99638.81;;;20.82;100.00
20145;BME280;10233;50.814;6.590;2023-06-19T02:32:22;99639.94;;;20.76;100.00
20145;BME280;10233;50.814;6.590;2023-06-19T02:33:23;99639.16;;;20.76;100.00
20145;BME280;10233;50.814;6.590;2023-06-19T02:34:23;99639.19;;;20.71;100.00
20145;BME280;10233;50.814;6.590;2023-06-19T02:35:24;99634.84;;;20.70;100.00
20145;BME280;10233;50.814;6.590;2023-06-19T02:36:24;99640.00;;;20.71;100.00
20145;BME280;10233;50.814;6.590;2023-06-19T02:37:26;99633.03;;;20.65;100.00
20145;BME280;10233;50.814;6.590;2023-06-19T02:38:26;99644.66;;;20.66;100.00
20145;BME280;10233;50.814;6.590;2023-06-19T02:39:27;99642.69;;;20.71;100.00
20145;BME280;10233;50.814;6.590;2023-06-19T02:40:27;99641.56;;;20.77;100.00
20145;BME280;10233;50.814;6.590;2023-06-19T02:41:28;99644.78;;;20.79;100.00
20145;BME280;10233;50.814;6.590;2023-06-19T02:42:28;99648.06;;;20.76;100.00
20145;BME280;10233;50.814;6.590;2023-06-19T02:43:30;99642.59;;;20.81;100.00
20145;BME280;10233;50.814;6.590;2023-06-19T02:44:30;99653.41;;;20.81;100.00
20145;BME280;10233;50.814;6.590;2023-06-19T02:45:31;99649.94;;;20.81;100.00
20145;BME280;10233;50.814;6.590;2023-06-19T02:46:31;99647.75;;;20.83;100.00
20145;BME280;10233;50.814;6.590;2023-06-19T02:47:32;99645.25;;;20.86;100.00
20145;BME280;10233;50.814;6.590;2023-06-19T02:48:33;99640.38;;;20.93;100.00
20145;BME280;10233;50.814;6.590;2023-06-19T02:49:34;99651.72;;;20.95;100.00
20145;BME280;10233;50.814;6.590;2023-06-19T02:50:34;99647.94;;;20.91;100.00
20145;BME280;10233;50.814;6.590;2023-06-19T02:51:35;99654.97;;;20.87;100.00
20145;BME280;10233;50.814;6.590;2023-06-19T02:52:35;99647.94;;;20.91;100.00
20145;BME280;10233;50.814;6.590;2023-06-19T02:53:36;99659.03;;;20.95;100.00
20145;BME280;10233;50.814;6.590;2023-06-19T02:54:36;99655.19;;;21.01;100.00
20145;BME280;10233;50.814;6.590;2023-06-19T02:55:37;99655.22;;;20.96;100.00
20145;BME280;10233;50.814;6.590;2023-06-19T02:56:38;99669.53;;;20.96;100.00
20145;BME280;10233;50.814;6.590;2023-06-19T02:57:39;99654.41;;;20.95;100.00
20145;BME280;10233;50.814;6.590;2023-06-19T02:58:39;99663.63;;;20.94;100.00
20145;BME280;10233;50.814;6.590;2023-06-19T02:59:39;99667.41;;;20.93;100.00
20145;BME280;10233;50.814;6.590;2023-06-19T03:00:40;99672.00;;;20.93;100.00
20145;BME280;10233;50.814;6.590;2023-06-19T03:01:40;99672.59;;;20.90;100.00
20145;BME280;10233;50.814;6.590;2023-06-19T03:02:41;99673.88;;;20.97;100.00
20145;BME280;10233;50.814;6.590;2023-06-19T03:03:42;99673.09;;;20.92;100.00
20145;BME280;10233;50.814;6.590;2023-06-19T03:04:42;99675.25;;;20.95;100.00
20145;BME280;10233;50.814;6.590;2023-06-19T03:05:43;99679.28;;;20.97;100.00
20145;BME280;10233;50.814;6.590;2023-06-19T03:06:44;99679.81;;;20.99;100.00
20145;BME280;10233;50.814;6.590;2023-06-19T03:07:45;99682.78;;;20.98;100.00
20145;BME280;10233;50.814;6.590;2023-06-19T03:08:46;99683.88;;;20.97;100.00
20145;BME280;10233;50.814;6.590;2023-06-19T03:09:46;99687.34;;;21.02;100.00
20145;BME280;10233;50.814;6.590;2023-06-19T03:10:48;99687.63;;;21.01;100.00
20145;BME280;10233;50.814;6.590;2023-06-19T03:11:48;99686.31;;;20.98;100.00
20145;BME280;10233;50.814;6.590;2023-06-19T03:12:49;99688.47;;;20.96;100.00
20145;BME280;10233;50.814;6.590;2023-06-19T03:13:52;99690.16;;;20.92;100.00
20145;BME280;10233;50.814;6.590;2023-06-19T03:14:53;99697.44;;;20.92;100.00
20145;BME280;10233;50.814;6.590;2023-06-19T03:15:54;99695.00;;;20.90;100.00
20145;BME280;10233;50.814;6.590;2023-06-19T03:16:54;99701.53;;;20.84;100.00
20145;BME280;10233;50.814;6.590;2023-06-19T03:17:56;99696.63;;;20.86;100.00
20145;BME280;10233;50.814;6.590;2023-06-19T03:18:59;99696.13;;;20.84;100.00
20145;BME280;10233;50.814;6.590;2023-06-19T03:19:59;99704.50;;;20.83;100.00
20145;BME280;10233;50.814;6.590;2023-06-19T03:21:00;99700.19;;;20.82;100.00
20145;BME280;10233;50.814;6.590;2023-06-19T03:22:01;99695.63;;;20.77;100.00
20145;BME280;10233;50.814;6.590;2023-06-19T03:23:01;99708.63;;;20.75;100.00
20145;BME280;10233;50.814;6.590;2023-06-19T03:24:03;99701.38;;;20.71;100.00
20145;BME280;10233;50.814;6.590;2023-06-19T03:25:04;99700.03;;;20.68;100.00
20145;BME280;10233;50.814;6.590;2023-06-19T03:26:04;99705.47;;;20.63;100.00
20145;BME280;10233;50.814;6.590;2023-06-19T03:27:06;99704.41;;;20.59;100.00
20145;BME280;10233;50.814;6.590;2023-06-19T03:28:06;99699.56;;;20.56;100.00
20145;BME280;10233;50.814;6.590;2023-06-19T03:29:08;99696.91;;;20.46;100.00
20145;BME280;10233;50.814;6.590;2023-06-19T03:30:26;99703.13;;;20.52;100.00
20145;BME280;10233;50.814;6.590;2023-06-19T03:31:27;99699.63;;;20.46;100.00
20145;BME280;10233;50.814;6.590;2023-06-19T03:32:28;99701.28;;;20.37;100.00
20145;BME280;10233;50.814;6.590;2023-06-19T03:33:28;99703.47;;;20.35;100.00
20145;BME280;10233;50.814;6.590;2023-06-19T03:34:29;99706.72;;;20.32;100.00
20145;BME280;10233;50.814;6.590;2023-06-19T03:35:32;99721.31;;;20.31;100.00
20145;BME280;10233;50.814;6.590;2023-06-19T03:36:33;99708.88;;;20.35;100.00
20145;BME280;10233;50.814;6.590;2023-06-19T03:37:40;99720.22;;;20.32;100.00
20145;BME280;10233;50.814;6.590;2023-06-19T03:38:41;99722.66;;;20.34;100.00
20145;BME280;10233;50.814;6.590;2023-06-19T03:39:44;99733.22;;;20.30;100.00
20145;BME280;10233;50.814;6.590;2023-06-19T03:40:45;99730.53;;;20.25;100.00
20145;BME280;10233;50.814;6.590;2023-06-19T03:41:46;99736.75;;;20.21;100.00
20145;BME280;10233;50.814;6.590;2023-06-19T03:42:48;99741.63;;;20.24;100.00
20145;BME280;10233;50.814;6.590;2023-06-19T03:43:50;99743.25;;;20.20;100.00
20145;BME280;10233;50.814;6.590;2023-06-19T03:44:51;99745.38;;;20.28;100.00
20145;BME280;10233;50.814;6.590;2023-06-19T03:45:52;99757.81;;;20.29;100.00
20145;BME280;10233;50.814;6.590;2023-06-19T03:46:52;99750.81;;;20.23;100.00
20145;BME280;10233;50.814;6.590;2023-06-19T03:47:53;99752.41;;;20.29;100.00
20145;BME280;10233;50.814;6.590;2023-06-19T03:48:54;99757.56;;;20.25;100.00
20145;BME280;10233;50.814;6.590;2023-06-19T03:49:54;99758.63;;;20.24;100.00
20145;BME280;10233;50.814;6.590;2023-06-19T03:50:55;99751.06;;;20.21;100.00
20145;BME280;10233;50.814;6.590;2023-06-19T03:51:55;99759.44;;;20.20;100.00
20145;BME280;10233;50.814;6.590;2023-06-19T03:52:58;99756.22;;;20.18;100.00
20145;BME280;10233;50.814;6.590;2023-06-19T03:53:58;99760.81;;;20.17;100.00
20145;BME280;10233;50.814;6.590;2023-06-19T03:54:59;99761.06;;;20.21;100.00
20145;BME280;10233;50.814;6.590;2023-06-19T03:55:59;99769.97;;;20.21;100.00
20145;BME280;10233;50.814;6.590;2023-06-19T03:57:00;99769.16;;;20.21;100.00
20145;BME280;10233;50.814;6.590;2023-06-19T03:58:00;99770.25;;;20.20;100.00
20145;BME280;10233;50.814;6.590;2023-06-19T03:59:01;99763.75;;;20.21;100.00
20145;BME280;10233;50.814;6.590;2023-06-19T04:00:02;99765.38;;;20.27;100.00
20145;BME280;10233;50.814;6.590;2023-06-19T04:01:12;99771.59;;;20.22;100.00
20145;BME280;10233;50.814;6.590;2023-06-19T04:02:13;99776.22;;;20.22;100.00
20145;BME280;10233;50.814;6.590;2023-06-19T04:03:14;99768.91;;;20.22;100.00
20145;BME280;10233;50.814;6.590;2023-06-19T04:04:14;99767.53;;;20.25;100.00
20145;BME280;10233;50.814;6.590;2023-06-19T04:05:15;99772.16;;;20.24;100.00
20145;BME280;10233;50.814;6.590;2023-06-19T04:06:19;99767.25;;;20.26;100.00
20145;BME280;10233;50.814;6.590;2023-06-19T04:07:20;99773.47;;;20.27;100.00
20145;BME280;10233;50.814;6.590;2023-06-19T04:08:20;99773.19;;;20.28;100.00
20145;BME280;10233;50.814;6.590;2023-06-19T04:09:21;99779.44;;;20.24;100.00
20145;BME280;10233;50.814;6.590;2023-06-19T04:10:21;99775.69;;;20.15;100.00
20145;BME280;10233;50.814;6.590;2023-06-19T04:11:22;99787.53;;;20.19;100.00
20145;BME280;10233;50.814;6.590;2023-06-19T04:12:22;99787.03;;;20.17;100.00
20145;BME280;10233;50.814;6.590;2023-06-19T04:13:23;99789.72;;;20.22;100.00
20145;BME280;10233;50.814;6.590;2023-06-19T04:14:26;99785.66;;;20.24;100.00
20145;BME280;10233;50.814;6.590;2023-06-19T04:15:28;99795.63;;;20.24;100.00
20145;BME280;10233;50.814;6.590;2023-06-19T04:16:29;99794.53;;;20.25;100.00
20145;BME280;10233;50.814;6.590;2023-06-19T04:17:30;99796.16;;;20.26;100.00
20145;BME280;10233;50.814;6.590;2023-06-19T04:18:31;99801.28;;;20.27;100.00
20145;BME280;10233;50.814;6.590;2023-06-19T04:19:31;99802.63;;;20.30;100.00
20145;BME280;10233;50.814;6.590;2023-06-19T04:20:32;99805.91;;;20.27;100.00
20145;BME280;10233;50.814;6.590;2023-06-19T04:21:33;99802.34;;;20.31;100.00
20145;BME280;10233;50.814;6.590;2023-06-19T04:22:34;99803.94;;;20.37;100.00
20145;BME280;10233;50.814;6.590;2023-06-19T04:23:36;99807.19;;;20.39;100.00
20145;BME280;10233;50.814;6.590;2023-06-19T04:24:37;99805.84;;;20.42;100.00
20145;BME280;10233;50.814;6.590;2023-06-19T04:25:37;99807.69;;;20.46;100.00
20145;BME280;10233;50.814;6.590;2023-06-19T04:26:37;99804.69;;;20.53;100.00
20145;BME280;10233;50.814;6.590;2023-06-19T04:27:38;99811.38;;;20.65;100.00
20145;BME280;10233;50.814;6.590;2023-06-19T04:28:39;99816.50;;;20.72;100.00
20145;BME280;10233;50.814;6.590;2023-06-19T04:29:39;99801.34;;;20.76;100.00
20145;BME280;10233;50.814;6.590;2023-06-19T04:30:40;99809.13;;;20.82;100.00
20145;BME280;10233;50.814;6.590;2023-06-19T04:31:40;99814.22;;;20.89;100.00
20145;BME280;10233;50.814;6.590;2023-06-19T04:32:41;99806.09;;;20.89;100.00
20145;BME280;10233;50.814;6.590;2023-06-19T04:33:41;99813.44;;;20.93;100.00
20145;BME280;10233;50.814;6.590;2023-06-19T04:34:42;99808.03;;;20.93;100.00
20145;BME280;10233;50.814;6.590;2023-06-19T04:35:46;99806.88;;;20.99;100.00
20145;BME280;10233;50.814;6.590;2023-06-19T04:36:48;99805.28;;;20.98;100.00
20145;BME280;10233;50.814;6.590;2023-06-19T04:37:49;99808.00;;;20.98;100.00
20145;BME280;10233;50.814;6.590;2023-06-19T04:38:50;99804.47;;;20.98;100.00
20145;BME280;10233;50.814;6.590;2023-06-19T04:39:51;99808.75;;;21.04;100.00
20145;BME280;10233;50.814;6.590;2023-06-19T04:40:52;99808.50;;;21.00;100.00
20145;BME280;10233;50.814;6.590;2023-06-19T04:41:53;99810.94;;;21.02;100.00
20145;BME280;10233;50.814;6.590;2023-06-19T04:42:53;99816.59;;;21.05;100.00
20145;BME280;10233;50.814;6.590;2023-06-19T04:43:55;99811.13;;;21.10;100.00
20145;BME280;10233;50.814;6.590;2023-06-19T04:44:55;99806.50;;;21.16;100.00
20145;BME280;10233;50.814;6.590;2023-06-19T04:45:59;99813.50;;;21.22;100.00
20145;BME280;10233;50.814;6.590;2023-06-19T04:47:00;99810.50;;;21.23;100.00
20145;BME280;10233;50.814;6.590;2023-06-19T04:48:03;99810.53;;;21.18;100.00
20145;BME280;10233;50.814;6.590;2023-06-19T04:49:05;99808.13;;;21.17;100.00
20145;BME280;10233;50.814;6.590;2023-06-19T04:50:07;99808.41;;;21.15;100.00
20145;BME280;10233;50.814;6.590;2023-06-19T04:51:07;99810.28;;;21.20;100.00
20145;BME280;10233;50.814;6.590;2023-06-19T04:52:08;99811.66;;;21.17;100.00
20145;BME280;10233;50.814;6.590;2023-06-19T04:53:09;99808.34;;;21.20;100.00
20145;BME280;10233;50.814;6.590;2023-06-19T04:54:09;99806.19;;;21.22;100.00
20145;BME280;10233;50.814;6.590;2023-06-19T04:55:09;99809.41;;;21.24;100.00
20145;BME280;10233;50.814;6.590;2023-06-19T04:56:10;99804.00;;;21.24;100.00
20145;BME280;10233;50.814;6.590;2023-06-19T04:57:10;99805.38;;;21.22;100.00
20145;BME280;10233;50.814;6.590;2023-06-19T04:58:11;99807.88;;;21.13;100.00
20145;BME280;10233;50.814;6.590;2023-06-19T04:59:11;99807.28;;;21.16;100.00
20145;BME280;10233;50.814;6.590;2023-06-19T05:00:12;99808.31;;;21.25;100.00
20145;BME280;10233;50.814;6.590;2023-06-19T05:01:15;99806.75;;;21.19;100.00
20145;BME280;10233;50.814;6.590;2023-06-19T05:02:15;99802.13;;;21.25;100.00
20145;BME280;10233;50.814;6.590;2023-06-19T05:03:19;99808.31;;;21.25;100.00
20145;BME280;10233;50.814;6.590;2023-06-19T05:04:23;99809.22;;;21.16;100.00
20145;BME280;10233;50.814;6.590;2023-06-19T05:05:23;99813.28;;;21.13;100.00
20145;BME280;10233;50.814;6.590;2023-06-19T05:06:24;99805.22;;;21.08;100.00
20145;BME280;10233;50.814;6.590;2023-06-19T05:07:24;99813.59;;;21.07;100.00
20145;BME280;10233;50.814;6.590;2023-06-19T05:08:25;99808.22;;;21.02;100.00
20145;BME280;10233;50.814;6.590;2023-06-19T05:09:25;99810.69;;;20.98;100.00
20145;BME280;10233;50.814;6.590;2023-06-19T05:10:26;99813.59;;;21.07;100.00
20145;BME280;10233;50.814;6.590;2023-06-19T05:11:26;99807.72;;;21.00;100.00
20145;BME280;10233;50.814;6.590;2023-06-19T05:12:27;99812.53;;;21.03;100.00
20145;BME280;10233;50.814;6.590;2023-06-19T05:13:27;99812.81;;;21.01;100.00
20145;BME280;10233;50.814;6.590;2023-06-19T05:14:28;99814.47;;;21.02;100.00
20145;BME280;10233;50.814;6.590;2023-06-19T05:15:28;99810.94;;;21.02;100.00
20145;BME280;10233;50.814;6.590;2023-06-19T05:16:28;99802.31;;;21.00;100.00
20145;BME280;10233;50.814;6.590;2023-06-19T05:17:29;99812.00;;;21.06;100.00
20145;BME280;10233;50.814;6.590;2023-06-19T05:18:29;99807.94;;;21.03;100.00
20145;BME280;10233;50.814;6.590;2023-06-19T05:19:30;99806.59;;;21.06;100.00
20145;BME280;10233;50.814;6.590;2023-06-19T05:20:31;99813.84;;;21.10;100.00
20145;BME280;10233;50.814;6.590;2023-06-19T05:21:31;99798.66;;;21.14;100.00
20145;BME280;10233;50.814;6.590;2023-06-19T05:22:32;99805.69;;;21.15;100.00
20145;BME280;10233;50.814;6.590;2023-06-19T05:23:34;99798.63;;;21.19;100.00